Jackson County Reynolds Field Jackson US
ICAO: KJXN
IATA: JXN
Category: Medium
Scheduled Services: No

Elevation: 1001 ft
TransAlt. 18000 ft.

Airport Communications:
LANSING APP/DEP:127.3
ATIS:125.725
CTAF:120.7
GND/CLNC DEL:121.9
LANSING RDO:122.2
TWR:120.7
UNICOM:122.95

KJXN Zoom In..

Runways:

(A) RW 06 length 5349 ft width 150 ft
---- / hdg 56

(B) RW 14 length 4000 ft width 100 ft
---- / hdg 138

(C) RW 24 length 5349 ft width 150 ft
ILS 109.10 / hdg 236

(D) RW 32 length 4000 ft width 100 ft
---- / hdg 318

Location; KJXN
Day. 21 / Time. 23.56 Zulu
* Altimeter: 29.99
* Temperature: 03° c. 37.4°f.
* Wind from: 120° Speed 06 kn.
Dewpoint: 03° c.
Visibility: 1/4 Statute Miles.
Conditions: Fog.

KJXN 212356Z 12006KT 1/4SM FG VV002 03/03 A2999 RMK AO2 SLP163 T00330033 10044 20033 50005


Wind From 120°
Speed 06 kn.

jpsM music video
CHECK IT OUT

jpsM - It Moves..

 
jpsmedia.com for Web Design  worldairports.se 2018   terms of use